sensor_id;sensor_type;location;lat;lon;timestamp;pressure;altitude;pressure_sealevel;temperature;humidity
21664;BME280;10993;52.510;13.456;2023-01-29T00:00:41;56672.16;;;-146.93;58.59
21664;BME280;10993;52.510;13.456;2023-01-29T00:05:41;56686.31;;;-146.93;59.21
21664;BME280;10993;52.510;13.456;2023-01-29T00:10:42;56668.09;;;-146.93;59.60
21664;BME280;10993;52.510;13.456;2023-01-29T00:15:52;56666.06;;;-146.93;59.69
21664;BME280;10993;52.510;13.456;2023-01-29T00:20:52;56698.47;;;-146.93;59.65
21664;BME280;10993;52.510;13.456;2023-01-29T00:25:53;56724.78;;;-146.93;59.88
21664;BME280;10993;52.510;13.456;2023-01-29T00:30:55;56680.25;;;-146.93;59.95
21664;BME280;10993;52.510;13.456;2023-01-29T00:35:55;56670.13;;;-146.93;60.13
21664;BME280;10993;52.510;13.456;2023-01-29T00:40:55;56672.16;;;-146.93;60.30
21664;BME280;10993;52.510;13.456;2023-01-29T00:46:15;56694.41;;;-146.93;61.26
21664;BME280;10993;52.510;13.456;2023-01-29T00:51:16;56668.09;;;-146.93;60.91
21664;BME280;10993;52.510;13.456;2023-01-29T00:56:16;56674.19;;;-146.93;60.83
21664;BME280;10993;52.510;13.456;2023-01-29T01:01:18;56672.16;;;-146.93;60.28
21664;BME280;10993;52.510;13.456;2023-01-29T01:06:39;56686.31;;;-146.93;60.08
21664;BME280;10993;52.510;13.456;2023-01-29T01:11:40;56714.66;;;-146.93;60.77
21664;BME280;10993;52.510;13.456;2023-01-29T01:16:42;56653.94;;;-146.93;60.94
21664;BME280;10993;52.510;13.456;2023-01-29T01:21:43;56664.06;;;-146.93;60.64
21664;BME280;10993;52.510;13.456;2023-01-29T01:26:46;56657.97;;;-146.93;60.80
21664;BME280;10993;52.510;13.456;2023-01-29T01:31:47;56657.97;;;-146.93;61.03
21664;BME280;10993;52.510;13.456;2023-01-29T01:36:48;56660.00;;;-146.93;61.54
21664;BME280;10993;52.510;13.456;2023-01-29T01:41:48;56649.88;;;-146.93;61.45
21664;BME280;10993;52.510;13.456;2023-01-29T01:46:50;56674.19;;;-146.93;62.03
21664;BME280;10993;52.510;13.456;2023-01-29T01:51:51;56668.09;;;-146.93;62.25
21664;BME280;10993;52.510;13.456;2023-01-29T01:56:54;56668.09;;;-146.93;63.02
21664;BME280;10993;52.510;13.456;2023-01-29T02:02:05;56657.97;;;-146.93;62.34
21664;BME280;10993;52.510;13.456;2023-01-29T02:07:25;56662.03;;;-146.93;62.11
21664;BME280;10993;52.510;13.456;2023-01-29T02:12:44;56538.53;;;-146.93;63.11
21664;BME280;10993;52.510;13.456;2023-01-29T02:17:46;56682.28;;;-146.93;63.02
21664;BME280;10993;52.510;13.456;2023-01-29T02:23:04;56676.19;;;-146.93;63.26
21664;BME280;10993;52.510;13.456;2023-01-29T02:28:25;56692.41;;;-146.93;62.59
21664;BME280;10993;52.510;13.456;2023-01-29T02:33:35;56655.94;;;-146.93;62.72
21664;BME280;10993;52.510;13.456;2023-01-29T02:38:44;56657.97;;;-146.93;62.54
21664;BME280;10993;52.510;13.456;2023-01-29T02:43:53;56668.09;;;-146.93;62.73
21664;BME280;10993;52.510;13.456;2023-01-29T02:48:58;56635.72;;;-146.93;62.30
21664;BME280;10993;52.510;13.456;2023-01-29T02:54:03;56583.06;;;-146.93;62.33
21664;BME280;10993;52.510;13.456;2023-01-29T02:59:11;56686.31;;;-146.93;62.62
21664;BME280;10993;52.510;13.456;2023-01-29T03:04:17;56641.78;;;-146.93;62.76
21664;BME280;10993;52.510;13.456;2023-01-29T03:09:22;56637.72;;;-146.93;62.87
21664;BME280;10993;52.510;13.456;2023-01-29T03:14:30;56666.06;;;-146.93;62.87
21664;BME280;10993;52.510;13.456;2023-01-29T03:19:52;56666.06;;;-146.93;62.68
21664;BME280;10993;52.510;13.456;2023-01-29T03:24:56;56682.28;;;-146.93;63.03
21664;BME280;10993;52.510;13.456;2023-01-29T03:30:17;56633.69;;;-146.93;63.35
21664;BME280;10993;52.510;13.456;2023-01-29T03:35:39;56688.34;;;-146.93;63.85
21664;BME280;10993;52.510;13.456;2023-01-29T03:40:45;56574.97;;;-146.93;64.74
21664;BME280;10993;52.510;13.456;2023-01-29T03:45:58;56649.88;;;-146.93;65.39
21664;BME280;10993;52.510;13.456;2023-01-29T03:51:10;57723.16;;;-146.93;64.57
21664;BME280;10993;52.510;13.456;2023-01-29T03:56:21;56698.47;;;-146.93;64.44
21664;BME280;10993;52.510;13.456;2023-01-29T04:01:28;56676.19;;;-146.93;64.23
21664;BME280;10993;52.510;13.456;2023-01-29T04:06:32;56657.97;;;-146.93;64.43
21664;BME280;10993;52.510;13.456;2023-01-29T04:11:37;56651.91;;;-146.93;64.46
21664;BME280;10993;52.510;13.456;2023-01-29T04:16:43;56674.19;;;-146.93;64.79
21664;BME280;10993;52.510;13.456;2023-01-29T04:21:47;56657.97;;;-146.93;65.35
21664;BME280;10993;52.510;13.456;2023-01-29T04:26:55;56617.47;;;-146.93;65.25
21664;BME280;10993;52.510;13.456;2023-01-29T04:32:08;56641.78;;;-146.93;64.85
21664;BME280;10993;52.510;13.456;2023-01-29T04:37:15;56662.03;;;-146.93;65.44
21664;BME280;10993;52.510;13.456;2023-01-29T04:42:23;56692.41;;;-146.93;66.88
21664;BME280;10993;52.510;13.456;2023-01-29T04:47:34;56666.06;;;-146.93;67.28
21664;BME280;10993;52.510;13.456;2023-01-29T04:52:44;56660.00;;;-146.93;68.67
21664;BME280;10993;52.510;13.456;2023-01-29T04:57:49;56653.94;;;-146.93;68.65
21664;BME280;10993;52.510;13.456;2023-01-29T05:02:53;56670.13;;;-146.93;69.18
21664;BME280;10993;52.510;13.456;2023-01-29T05:07:54;56662.03;;;-146.93;70.08
21664;BME280;10993;52.510;13.456;2023-01-29T05:12:58;56672.16;;;-146.93;70.70
21664;BME280;10993;52.510;13.456;2023-01-29T05:18:01;56641.78;;;-146.93;71.29
21664;BME280;10993;52.510;13.456;2023-01-29T05:23:02;56625.59;;;-146.93;73.16
21664;BME280;10993;52.510;13.456;2023-01-29T05:28:03;56649.88;;;-146.93;74.80
21664;BME280;10993;52.510;13.456;2023-01-29T05:33:11;56653.94;;;-146.93;76.17
21664;BME280;10993;52.510;13.456;2023-01-29T05:38:12;56939.44;;;-146.93;77.36
21664;BME280;10993;52.510;13.456;2023-01-29T05:43:14;56678.22;;;-146.93;78.27
21664;BME280;10993;52.510;13.456;2023-01-29T05:48:16;56647.84;;;-146.93;78.62
21664;BME280;10993;52.510;13.456;2023-01-29T05:53:17;56666.06;;;-146.93;78.83
21664;BME280;10993;52.510;13.456;2023-01-29T05:58:17;56641.78;;;-146.93;78.50
21664;BME280;10993;52.510;13.456;2023-01-29T06:03:20;56629.63;;;-146.93;78.01
21664;BME280;10993;52.510;13.456;2023-01-29T06:08:20;56651.91;;;-146.93;78.31
21664;BME280;10993;52.510;13.456;2023-01-29T06:13:20;56690.38;;;-146.93;78.54
21664;BME280;10993;52.510;13.456;2023-01-29T06:18:22;56672.16;;;-146.93;78.46
21664;BME280;10993;52.510;13.456;2023-01-29T06:23:22;56688.34;;;-146.93;78.10
21664;BME280;10993;52.510;13.456;2023-01-29T06:28:23;56655.94;;;-146.93;78.07
21664;BME280;10993;52.510;13.456;2023-01-29T06:33:25;56674.19;;;-146.93;78.16
21664;BME280;10993;52.510;13.456;2023-01-29T06:38:25;56645.81;;;-146.93;78.25
21664;BME280;10993;52.510;13.456;2023-01-29T06:43:26;56621.53;;;-146.93;78.14
21664;BME280;10993;52.510;13.456;2023-01-29T06:48:28;56662.03;;;-146.93;78.50
21664;BME280;10993;52.510;13.456;2023-01-29T06:53:29;56678.22;;;-146.93;78.57
21664;BME280;10993;52.510;13.456;2023-01-29T06:58:30;56664.06;;;-146.93;79.18
21664;BME280;10993;52.510;13.456;2023-01-29T07:03:32;56647.84;;;-146.93;79.47
21664;BME280;10993;52.510;13.456;2023-01-29T07:08:34;56635.72;;;-146.93;79.26
21664;BME280;10993;52.510;13.456;2023-01-29T07:13:35;56643.81;;;-146.93;79.44
21664;BME280;10993;52.510;13.456;2023-01-29T07:18:37;56637.72;;;-146.93;79.16
21664;BME280;10993;52.510;13.456;2023-01-29T07:23:37;56641.78;;;-146.93;78.95
21664;BME280;10993;52.510;13.456;2023-01-29T07:28:38;56641.78;;;-146.93;79.43
21664;BME280;10993;52.510;13.456;2023-01-29T07:33:41;56639.75;;;-146.93;78.90
21664;BME280;10993;52.510;13.456;2023-01-29T07:38:42;56619.50;;;-146.93;78.90
21664;BME280;10993;52.510;13.456;2023-01-29T07:43:42;56629.63;;;-146.93;79.40
21664;BME280;10993;52.510;13.456;2023-01-29T07:48:44;56676.19;;;-146.93;79.84
21664;BME280;10993;52.510;13.456;2023-01-29T07:53:44;56631.66;;;-146.93;79.45
21664;BME280;10993;52.510;13.456;2023-01-29T07:58:45;56641.78;;;-146.93;79.36
21664;BME280;10993;52.510;13.456;2023-01-29T08:03:46;56633.69;;;-146.93;79.08
21664;BME280;10993;52.510;13.456;2023-01-29T08:08:47;56674.19;;;-146.93;78.75
21664;BME280;10993;52.510;13.456;2023-01-29T08:13:47;56666.06;;;-146.93;79.56
21664;BME280;10993;52.510;13.456;2023-01-29T08:18:48;56641.78;;;-146.93;79.36
21664;BME280;10993;52.510;13.456;2023-01-29T08:23:49;56690.38;;;-146.93;80.62
21664;BME280;10993;52.510;13.456;2023-01-29T08:28:49;56641.78;;;-146.93;79.81
21664;BME280;10993;52.510;13.456;2023-01-29T08:33:52;56653.94;;;-146.93;80.19
21664;BME280;10993;52.510;13.456;2023-01-29T08:38:52;56653.94;;;-146.93;79.91
21664;BME280;10993;52.510;13.456;2023-01-29T08:43:53;56649.88;;;-146.93;80.49
21664;BME280;10993;52.510;13.456;2023-01-29T08:48:54;56657.97;;;-146.93;79.66
21664;BME280;10993;52.510;13.456;2023-01-29T08:53:56;56625.59;;;-146.93;79.90
21664;BME280;10993;52.510;13.456;2023-01-29T08:58:56;56627.59;;;-146.93;79.12
21664;BME280;10993;52.510;13.456;2023-01-29T09:03:58;56649.88;;;-146.93;78.89
21664;BME280;10993;52.510;13.456;2023-01-29T09:08:58;56469.69;;;-146.93;79.06
21664;BME280;10993;52.510;13.456;2023-01-29T09:13:59;56617.47;;;-146.93;79.20
21664;BME280;10993;52.510;13.456;2023-01-29T09:19:00;56609.38;;;-146.93;79.26
21664;BME280;10993;52.510;13.456;2023-01-29T09:24:01;56625.59;;;-146.93;78.76
21664;BME280;10993;52.510;13.456;2023-01-29T09:29:01;56664.06;;;-146.93;78.35
21664;BME280;10993;52.510;13.456;2023-01-29T09:34:03;56637.72;;;-146.93;78.15
21664;BME280;10993;52.510;13.456;2023-01-29T09:39:03;56641.78;;;-146.93;76.75
21664;BME280;10993;52.510;13.456;2023-01-29T09:44:09;56562.81;;;-146.93;75.68
21664;BME280;10993;52.510;13.456;2023-01-29T09:49:16;56621.53;;;-146.93;74.69
21664;BME280;10993;52.510;13.456;2023-01-29T09:54:22;56637.72;;;-146.93;73.20
21664;BME280;10993;52.510;13.456;2023-01-29T09:59:26;56601.28;;;-146.93;72.20
21664;BME280;10993;52.510;13.456;2023-01-29T10:04:39;56625.59;;;-146.93;71.79
21664;BME280;10993;52.510;13.456;2023-01-29T10:10:05;56625.59;;;-146.93;71.11
21664;BME280;10993;52.510;13.456;2023-01-29T10:15:19;56528.41;;;-146.93;70.09
21664;BME280;10993;52.510;13.456;2023-01-29T10:20:35;56625.59;;;-146.93;70.08
21664;BME280;10993;52.510;13.456;2023-01-29T10:25:41;56583.06;;;-146.93;68.58
21664;BME280;10993;52.510;13.456;2023-01-29T10:30:47;56591.16;;;-146.93;67.21
21664;BME280;10993;52.510;13.456;2023-01-29T10:35:53;56585.09;;;-146.93;65.26
21664;BME280;10993;52.510;13.456;2023-01-29T10:41:00;56653.94;;;-146.93;65.28
21664;BME280;10993;52.510;13.456;2023-01-29T10:46:15;56589.13;;;-146.93;64.89
21664;BME280;10993;52.510;13.456;2023-01-29T10:51:35;56621.53;;;-146.93;64.89
21664;BME280;10993;52.510;13.456;2023-01-29T10:56:46;56645.81;;;-146.93;63.07
21664;BME280;10993;52.510;13.456;2023-01-29T11:01:50;56611.41;;;-146.93;61.71
21664;BME280;10993;52.510;13.456;2023-01-29T11:06:52;56599.25;;;-146.93;59.58
21664;BME280;10993;52.510;13.456;2023-01-29T11:11:56;56593.19;;;-146.93;59.53
21664;BME280;10993;52.510;13.456;2023-01-29T11:16:58;56485.88;;;-146.93;59.33
21664;BME280;10993;52.510;13.456;2023-01-29T11:22:00;56595.22;;;-146.93;58.90
21664;BME280;10993;52.510;13.456;2023-01-29T11:27:00;56605.34;;;-146.93;57.69
21664;BME280;10993;52.510;13.456;2023-01-29T11:32:03;56605.34;;;-146.93;57.20
21664;BME280;10993;52.510;13.456;2023-01-29T11:37:14;56625.59;;;-146.93;56.33
21664;BME280;10993;52.510;13.456;2023-01-29T11:42:18;56660.00;;;-146.93;56.67
21664;BME280;10993;52.510;13.456;2023-01-29T11:47:20;56585.09;;;-146.93;55.33
21664;BME280;10993;52.510;13.456;2023-01-29T11:52:34;56617.47;;;-146.93;54.80
21664;BME280;10993;52.510;13.456;2023-01-29T11:57:37;56593.19;;;-146.93;55.34
21664;BME280;10993;52.510;13.456;2023-01-29T12:02:41;56627.59;;;-146.93;55.16
21664;BME280;10993;52.510;13.456;2023-01-29T12:07:46;56601.28;;;-146.93;55.11
21664;BME280;10993;52.510;13.456;2023-01-29T12:12:48;56601.28;;;-146.93;54.83
21664;BME280;10993;52.510;13.456;2023-01-29T12:17:57;56601.28;;;-146.93;56.69
21664;BME280;10993;52.510;13.456;2023-01-29T12:23:10;56591.16;;;-146.93;55.07
21664;BME280;10993;52.510;13.456;2023-01-29T12:28:22;56558.75;;;-146.93;55.40
21664;BME280;10993;52.510;13.456;2023-01-29T12:33:38;56977.91;;;-146.93;55.56
21664;BME280;10993;52.510;13.456;2023-01-29T12:38:42;56605.34;;;-146.93;56.17
21664;BME280;10993;52.510;13.456;2023-01-29T12:43:46;56577.00;;;-146.93;56.60
21664;BME280;10993;52.510;13.456;2023-01-29T12:48:48;56508.16;;;-146.93;56.86
21664;BME280;10993;52.510;13.456;2023-01-29T12:53:54;56609.38;;;-146.93;55.92
21664;BME280;10993;52.510;13.456;2023-01-29T12:58:56;56585.09;;;-146.93;57.95
21664;BME280;10993;52.510;13.456;2023-01-29T13:04:00;56609.38;;;-146.93;59.60
21664;BME280;10993;52.510;13.456;2023-01-29T13:09:07;56552.69;;;-146.93;59.87
21664;BME280;10993;52.510;13.456;2023-01-29T13:14:13;56609.38;;;-146.93;60.27
21664;BME280;10993;52.510;13.456;2023-01-29T13:19:24;56613.44;;;-146.93;60.17
21664;BME280;10993;52.510;13.456;2023-01-29T13:24:32;56591.16;;;-146.93;60.60
21664;BME280;10993;52.510;13.456;2023-01-29T13:29:36;56593.19;;;-146.93;60.40
21664;BME280;10993;52.510;13.456;2023-01-29T13:34:43;56579.00;;;-146.93;59.87
21664;BME280;10993;52.510;13.456;2023-01-29T13:39:48;56617.47;;;-146.93;60.08
21664;BME280;10993;52.510;13.456;2023-01-29T13:44:51;56483.84;;;-146.93;59.60
21664;BME280;10993;52.510;13.456;2023-01-29T13:49:55;56585.09;;;-146.93;60.42
21664;BME280;10993;52.510;13.456;2023-01-29T13:54:59;56579.00;;;-146.93;61.64
21664;BME280;10993;52.510;13.456;2023-01-29T14:00:01;56536.50;;;-146.93;62.68
21664;BME280;10993;52.510;13.456;2023-01-29T14:05:37;56589.13;;;-146.93;63.34
21664;BME280;10993;52.510;13.456;2023-01-29T14:10:40;56512.19;;;-146.93;64.42
21664;BME280;10993;52.510;13.456;2023-01-29T14:15:41;56621.53;;;-146.93;64.96
21664;BME280;10993;52.510;13.456;2023-01-29T14:20:51;56637.72;;;-146.93;66.28
21664;BME280;10993;52.510;13.456;2023-01-29T14:25:55;57305.97;;;-146.93;66.32
21664;BME280;10993;52.510;13.456;2023-01-29T14:30:56;56623.56;;;-146.93;67.77
21664;BME280;10993;52.510;13.456;2023-01-29T14:35:57;56601.28;;;-146.93;69.73
21664;BME280;10993;52.510;13.456;2023-01-29T14:41:06;56593.19;;;-146.93;70.08
21664;BME280;10993;52.510;13.456;2023-01-29T14:46:43;56605.34;;;-146.93;71.79
21664;BME280;10993;52.510;13.456;2023-01-29T14:51:44;56595.22;;;-146.93;72.79
21664;BME280;10993;52.510;13.456;2023-01-29T14:56:52;56609.38;;;-146.93;74.00
21664;BME280;10993;52.510;13.456;2023-01-29T15:01:59;56603.31;;;-146.93;75.04
21664;BME280;10993;52.510;13.456;2023-01-29T15:07:02;56593.19;;;-146.93;74.90
21664;BME280;10993;52.510;13.456;2023-01-29T15:12:14;56605.34;;;-146.93;75.65
21664;BME280;10993;52.510;13.456;2023-01-29T15:17:22;56457.53;;;-146.93;76.31
21664;BME280;10993;52.510;13.456;2023-01-29T15:22:24;56467.66;;;-146.93;76.46
21664;BME280;10993;52.510;13.456;2023-01-29T15:27:27;56619.50;;;-146.93;77.77
21664;BME280;10993;52.510;13.456;2023-01-29T15:32:31;56633.69;;;-146.93;77.39
21664;BME280;10993;52.510;13.456;2023-01-29T15:37:33;56633.69;;;-146.93;77.89
21664;BME280;10993;52.510;13.456;2023-01-29T15:42:43;56609.38;;;-146.93;77.57
21664;BME280;10993;52.510;13.456;2023-01-29T15:47:45;56611.41;;;-146.93;77.64
21664;BME280;10993;52.510;13.456;2023-01-29T15:52:48;56617.47;;;-146.93;77.96
21664;BME280;10993;52.510;13.456;2023-01-29T15:57:51;56593.19;;;-146.93;77.63
21664;BME280;10993;52.510;13.456;2023-01-29T16:02:52;56556.75;;;-146.93;77.07
21664;BME280;10993;52.510;13.456;2023-01-29T16:07:54;56637.72;;;-146.93;77.42
21664;BME280;10993;52.510;13.456;2023-01-29T16:12:56;56649.88;;;-146.93;77.51
21664;BME280;10993;52.510;13.456;2023-01-29T16:17:58;56629.63;;;-146.93;78.05
21664;BME280;10993;52.510;13.456;2023-01-29T16:22:59;57472.03;;;-146.93;77.37
21664;BME280;10993;52.510;13.456;2023-01-29T16:28:04;56601.28;;;-146.93;77.09
21664;BME280;10993;52.510;13.456;2023-01-29T16:33:10;56625.59;;;-146.93;76.90
21664;BME280;10993;52.510;13.456;2023-01-29T16:38:23;56591.16;;;-146.93;76.45
21664;BME280;10993;52.510;13.456;2023-01-29T16:43:48;56647.84;;;-146.93;76.80
21664;BME280;10993;52.510;13.456;2023-01-29T16:48:49;56653.94;;;-146.93;76.51
21664;BME280;10993;52.510;13.456;2023-01-29T16:53:58;56609.38;;;-146.93;76.38
21664;BME280;10993;52.510;13.456;2023-01-29T16:59:01;56631.66;;;-146.93;75.74
21664;BME280;10993;52.510;13.456;2023-01-29T17:04:07;56633.69;;;-146.93;75.41
21664;BME280;10993;52.510;13.456;2023-01-29T17:09:18;56625.59;;;-146.93;75.79
21664;BME280;10993;52.510;13.456;2023-01-29T17:14:22;56617.47;;;-146.93;75.02
21664;BME280;10993;52.510;13.456;2023-01-29T17:19:23;56635.72;;;-146.93;74.34
21664;BME280;10993;52.510;13.456;2023-01-29T17:24:25;56641.78;;;-146.93;74.25
21664;BME280;10993;52.510;13.456;2023-01-29T17:29:29;56516.25;;;-146.93;73.74
21664;BME280;10993;52.510;13.456;2023-01-29T17:34:30;56645.81;;;-146.93;74.35
21664;BME280;10993;52.510;13.456;2023-01-29T17:39:30;56601.28;;;-146.93;74.17
21664;BME280;10993;52.510;13.456;2023-01-29T17:44:32;56641.78;;;-146.93;73.25
21664;BME280;10993;52.510;13.456;2023-01-29T17:49:33;56637.72;;;-146.93;73.55
21664;BME280;10993;52.510;13.456;2023-01-29T17:54:35;56546.63;;;-146.93;73.24
21664;BME280;10993;52.510;13.456;2023-01-29T17:59:36;56631.66;;;-146.93;73.30
21664;BME280;10993;52.510;13.456;2023-01-29T18:04:37;56633.69;;;-146.93;73.69
21664;BME280;10993;52.510;13.456;2023-01-29T18:09:37;56655.94;;;-146.93;73.48
21664;BME280;10993;52.510;13.456;2023-01-29T18:14:39;56621.53;;;-146.93;72.94
21664;BME280;10993;52.510;13.456;2023-01-29T18:19:39;56651.91;;;-146.93;72.87
21664;BME280;10993;52.510;13.456;2023-01-29T18:24:39;56611.41;;;-146.93;72.67
21664;BME280;10993;52.510;13.456;2023-01-29T18:29:41;56613.44;;;-146.93;73.37
21664;BME280;10993;52.510;13.456;2023-01-29T18:34:42;56639.75;;;-146.93;73.68
21664;BME280;10993;52.510;13.456;2023-01-29T18:39:42;56653.94;;;-146.93;73.90
21664;BME280;10993;52.510;13.456;2023-01-29T18:44:44;56635.72;;;-146.93;73.51
21664;BME280;10993;52.510;13.456;2023-01-29T18:49:44;56643.81;;;-146.93;73.02
21664;BME280;10993;52.510;13.456;2023-01-29T18:54:44;56670.13;;;-146.93;72.59
21664;BME280;10993;52.510;13.456;2023-01-29T18:59:46;56631.66;;;-146.93;72.51
21664;BME280;10993;52.510;13.456;2023-01-29T19:04:46;56649.88;;;-146.93;72.29
21664;BME280;10993;52.510;13.456;2023-01-29T19:09:47;56653.94;;;-146.93;72.77
21664;BME280;10993;52.510;13.456;2023-01-29T19:14:50;56657.97;;;-146.93;72.18
21664;BME280;10993;52.510;13.456;2023-01-29T19:19:51;56625.59;;;-146.93;71.92
21664;BME280;10993;52.510;13.456;2023-01-29T19:24:51;56613.44;;;-146.93;71.88
21664;BME280;10993;52.510;13.456;2023-01-29T19:29:53;56605.34;;;-146.93;72.41
21664;BME280;10993;52.510;13.456;2023-01-29T19:34:55;56660.00;;;-146.93;72.40
21664;BME280;10993;52.510;13.456;2023-01-29T19:39:56;56637.72;;;-146.93;73.14
21664;BME280;10993;52.510;13.456;2023-01-29T19:44:58;56664.06;;;-146.93;72.97
21664;BME280;10993;52.510;13.456;2023-01-29T19:49:58;56655.94;;;-146.93;72.65
21664;BME280;10993;52.510;13.456;2023-01-29T19:54:59;56585.09;;;-146.93;71.85
21664;BME280;10993;52.510;13.456;2023-01-29T20:00:02;56639.75;;;-146.93;71.00
21664;BME280;10993;52.510;13.456;2023-01-29T20:05:03;56653.94;;;-146.93;70.47
21664;BME280;10993;52.510;13.456;2023-01-29T20:10:05;56639.75;;;-146.93;70.15
21664;BME280;10993;52.510;13.456;2023-01-29T20:15:08;56674.19;;;-146.93;69.24
21664;BME280;10993;52.510;13.456;2023-01-29T20:20:10;56660.00;;;-146.93;68.93
21664;BME280;10993;52.510;13.456;2023-01-29T20:25:10;56627.59;;;-146.93;68.86
21664;BME280;10993;52.510;13.456;2023-01-29T20:30:14;56668.09;;;-146.93;68.68
21664;BME280;10993;52.510;13.456;2023-01-29T20:35:14;56641.78;;;-146.93;69.26
21664;BME280;10993;52.510;13.456;2023-01-29T20:40:15;56637.72;;;-146.93;69.56
21664;BME280;10993;52.510;13.456;2023-01-29T20:45:17;56662.03;;;-146.93;70.22
21664;BME280;10993;52.510;13.456;2023-01-29T20:50:17;56653.94;;;-146.93;71.39
21664;BME280;10993;52.510;13.456;2023-01-29T20:55:19;56649.88;;;-146.93;71.51
21664;BME280;10993;52.510;13.456;2023-01-29T21:00:21;56666.06;;;-146.93;71.05
21664;BME280;10993;52.510;13.456;2023-01-29T21:05:21;56643.81;;;-146.93;70.37
21664;BME280;10993;52.510;13.456;2023-01-29T21:10:21;56635.72;;;-146.93;70.49
21664;BME280;10993;52.510;13.456;2023-01-29T21:15:23;56783.50;;;-146.93;71.01
21664;BME280;10993;52.510;13.456;2023-01-29T21:20:26;56645.81;;;-146.93;70.81
21664;BME280;10993;52.510;13.456;2023-01-29T21:25:26;56617.47;;;-146.93;70.73
21664;BME280;10993;52.510;13.456;2023-01-29T21:30:28;56641.78;;;-146.93;70.46
21664;BME280;10993;52.510;13.456;2023-01-29T21:35:28;56617.47;;;-146.93;70.34
21664;BME280;10993;52.510;13.456;2023-01-29T21:40:28;56664.06;;;-146.93;69.83
21664;BME280;10993;52.510;13.456;2023-01-29T21:45:30;56633.69;;;-146.93;70.00
21664;BME280;10993;52.510;13.456;2023-01-29T21:50:31;56651.91;;;-146.93;69.75
21664;BME280;10993;52.510;13.456;2023-01-29T21:55:31;56641.78;;;-146.93;69.59
21664;BME280;10993;52.510;13.456;2023-01-29T22:00:33;56649.88;;;-146.93;70.23
21664;BME280;10993;52.510;13.456;2023-01-29T22:05:33;56672.16;;;-146.93;70.14
21664;BME280;10993;52.510;13.456;2023-01-29T22:10:34;56629.63;;;-146.93;70.66
21664;BME280;10993;52.510;13.456;2023-01-29T22:15:36;56645.81;;;-146.93;70.29
21664;BME280;10993;52.510;13.456;2023-01-29T22:20:37;56633.69;;;-146.93;70.99
21664;BME280;10993;52.510;13.456;2023-01-29T22:25:37;56597.25;;;-146.93;69.95
21664;BME280;10993;52.510;13.456;2023-01-29T22:30:39;56627.59;;;-146.93;69.70
21664;BME280;10993;52.510;13.456;2023-01-29T22:35:40;56572.94;;;-146.93;70.31
21664;BME280;10993;52.510;13.456;2023-01-29T22:40:47;56639.75;;;-146.93;69.80
21664;BME280;10993;52.510;13.456;2023-01-29T22:45:49;56633.69;;;-146.93;69.22
21664;BME280;10993;52.510;13.456;2023-01-29T22:50:54;56682.28;;;-146.93;68.87
21664;BME280;10993;52.510;13.456;2023-01-29T22:56:09;56655.94;;;-146.93;68.58
21664;BME280;10993;52.510;13.456;2023-01-29T23:01:11;56651.91;;;-146.93;67.63
21664;BME280;10993;52.510;13.456;2023-01-29T23:06:12;56664.06;;;-146.93;68.31
21664;BME280;10993;52.510;13.456;2023-01-29T23:11:14;56649.88;;;-146.93;67.98
21664;BME280;10993;52.510;13.456;2023-01-29T23:16:20;56651.91;;;-146.93;67.48
21664;BME280;10993;52.510;13.456;2023-01-29T23:21:24;56633.69;;;-146.93;67.07
21664;BME280;10993;52.510;13.456;2023-01-29T23:26:25;56647.84;;;-146.93;66.19
21664;BME280;10993;52.510;13.456;2023-01-29T23:31:45;56611.41;;;-146.93;66.75
21664;BME280;10993;52.510;13.456;2023-01-29T23:36:46;56487.91;;;-146.93;66.80
21664;BME280;10993;52.510;13.456;2023-01-29T23:41:46;56627.59;;;-146.93;66.92
21664;BME280;10993;52.510;13.456;2023-01-29T23:46:48;56629.63;;;-146.93;66.23
21664;BME280;10993;52.510;13.456;2023-01-29T23:51:49;56649.88;;;-146.93;65.61
21664;BME280;10993;52.510;13.456;2023-01-29T23:56:49;56653.94;;;-146.93;66.37
